Time;durP1;ratioP1;P1;durP2;ratioP2;P2;SDS_P1;SDS_P2;PMS_P1;PMS_P2;Temp;Humidity;BMP_temperature;BMP_pressure;BME280_temperature;BME280_humidity;BME280_pressure;Samples;Min_cycle;Max_cycle;Signal;HPM_P1;HPM_P2
2024/03/11 00:00:50;;;;;;;0.80;0.80;;;4.70;99.90;;;;;;2065396;28;20585;-75
2024/03/11 00:01:51;;;;;;;0.80;0.80;;;4.70;99.90;;;;;;2047047;28;20191;-75
2024/03/11 00:02:52;;;;;;;1.43;1.10;;;4.60;99.90;;;;;;2060697;28;20209;-76
2024/03/11 00:03:53;;;;;;;1.73;1.48;;;4.60;99.90;;;;;;2064538;28;20193;-77
2024/03/11 00:04:54;;;;;;;1.58;1.15;;;4.50;99.90;;;;;;2059415;28;20191;-75
2024/03/11 00:05:55;;;;;;;2.80;1.10;;;4.50;99.90;;;;;;2060403;28;20187;-76
2024/03/11 00:06:57;;;;;;;1.20;0.82;;;4.60;99.90;;;;;;2057658;28;20187;-75
2024/03/11 00:07:58;;;;;;;1.70;0.90;;;4.50;99.90;;;;;;2072904;28;20182;-75
2024/03/11 00:08:59;;;;;;;2.50;1.10;;;4.40;99.90;;;;;;2074059;28;20739;-75
2024/03/11 00:10:00;;;;;;;1.57;1.40;;;4.30;99.90;;;;;;2074187;28;20628;-76
2024/03/11 00:11:01;;;;;;;2.55;1.00;;;4.20;99.90;;;;;;2073131;28;20234;-76
2024/03/11 00:12:03;;;;;;;3.08;1.00;;;4.20;99.90;;;;;;2065095;28;20869;-75
2024/03/11 00:13:03;;;;;;;1.02;0.93;;;4.20;99.90;;;;;;2059628;28;20238;-75
2024/03/11 00:14:06;;;;;;;1.07;1.00;;;4.30;99.90;;;;;;2065810;28;20264;-75
2024/03/11 00:15:07;;;;;;;1.10;1.00;;;4.20;99.90;;;;;;2062561;28;20254;-75
2024/03/11 00:16:08;;;;;;;2.38;1.10;;;4.20;99.90;;;;;;2052734;28;20632;-76
2024/03/11 00:17:09;;;;;;;1.10;1.00;;;4.20;99.90;;;;;;2057297;28;20234;-76
2024/03/11 00:18:10;;;;;;;2.20;1.00;;;4.30;99.90;;;;;;2065920;28;20591;-75
2024/03/11 00:19:11;;;;;;;0.77;0.77;;;4.30;99.90;;;;;;2066319;28;20240;-75
2024/03/11 00:20:12;;;;;;;1.23;1.10;;;4.20;99.90;;;;;;2061381;28;20294;-75
2024/03/11 00:21:12;;;;;;;1.20;1.10;;;4.20;99.90;;;;;;2057450;28;20826;-75
2024/03/11 00:22:13;;;;;;;1.47;1.00;;;4.20;99.90;;;;;;2065945;28;20229;-75
2024/03/11 00:23:14;;;;;;;2.10;1.23;;;4.20;99.90;;;;;;2073983;28;20244;-75
2024/03/11 00:24:15;;;;;;;0.73;0.73;;;4.10;99.90;;;;;;2061915;28;20230;-75
2024/03/11 00:25:15;;;;;;;1.27;1.10;;;4.20;99.90;;;;;;2065901;28;20230;-75
2024/03/11 00:26:16;;;;;;;1.00;0.90;;;4.20;99.90;;;;;;2071677;28;20326;-75
2024/03/11 00:27:17;;;;;;;1.40;1.00;;;4.20;99.90;;;;;;2074073;28;20223;-76
2024/03/11 00:28:17;;;;;;;1.57;1.10;;;4.10;99.90;;;;;;2065927;28;20225;-76
2024/03/11 00:29:19;;;;;;;1.40;0.90;;;4.10;99.90;;;;;;2058649;28;20226;-74
2024/03/11 00:30:20;;;;;;;1.95;0.90;;;3.90;99.90;;;;;;2058197;28;20245;-74
2024/03/11 00:31:27;;;;;;;0.70;0.70;;;3.90;99.90;;;;;;2056136;28;20648;-75
2024/03/11 00:32:27;;;;;;;2.13;0.98;;;3.90;99.90;;;;;;2060462;28;20229;-75
2024/03/11 00:33:29;;;;;;;2.23;1.10;;;3.90;99.90;;;;;;2062114;28;20323;-75
2024/03/11 00:34:29;;;;;;;0.80;0.80;;;3.90;99.90;;;;;;2066126;28;20240;-75
2024/03/11 00:35:30;;;;;;;1.47;1.10;;;3.90;99.90;;;;;;2061213;28;20230;-75
2024/03/11 00:36:31;;;;;;;1.00;0.90;;;3.90;99.90;;;;;;2059137;28;20246;-75
2024/03/11 00:37:32;;;;;;;1.35;0.98;;;3.90;99.90;;;;;;2070381;28;20229;-75
2024/03/11 00:38:33;;;;;;;0.80;0.80;;;3.90;99.90;;;;;;2066162;28;20236;-75
2024/03/11 00:39:35;;;;;;;1.10;1.00;;;3.80;99.90;;;;;;2067076;28;20324;-75
2024/03/11 00:40:36;;;;;;;1.50;1.00;;;3.90;99.90;;;;;;2055913;28;20240;-75
2024/03/11 00:41:37;;;;;;;2.63;1.00;;;3.90;99.90;;;;;;2044852;28;20234;-75
2024/03/11 00:42:40;;;;;;;0.88;0.80;;;3.90;99.90;;;;;;2053033;28;20264;-75
2024/03/11 00:43:45;;;;;;;1.92;0.88;;;3.90;99.90;;;;;;2070812;28;20264;-75
2024/03/11 00:44:48;;;;;;;1.00;0.90;;;3.90;99.90;;;;;;2054549;28;20191;-75
2024/03/11 00:45:49;;;;;;;0.77;0.77;;;3.90;99.90;;;;;;2049080;28;20206;-75
2024/03/11 00:46:50;;;;;;;0.97;0.93;;;3.90;99.90;;;;;;2057225;28;20596;-76
2024/03/11 00:47:50;;;;;;;1.00;0.90;;;3.80;99.90;;;;;;2059848;28;20187;-75
2024/03/11 00:48:51;;;;;;;2.33;0.90;;;3.70;99.90;;;;;;2050586;28;20198;-75
2024/03/11 00:49:52;;;;;;;2.93;1.00;;;3.80;99.90;;;;;;2053872;28;20220;-74
2024/03/11 00:50:53;;;;;;;1.57;1.30;;;3.80;99.90;;;;;;2075764;28;20195;-74
2024/03/11 00:51:54;;;;;;;2.08;0.85;;;3.70;99.90;;;;;;2068626;28;20433;-75
2024/03/11 00:52:55;;;;;;;1.33;0.93;;;3.70;99.90;;;;;;2060386;28;20202;-75
2024/03/11 00:53:56;;;;;;;0.77;0.70;;;3.70;99.90;;;;;;2060874;28;20260;-75
2024/03/11 00:54:57;;;;;;;1.65;0.98;;;3.70;99.90;;;;;;2052776;28;20715;-75
2024/03/11 00:55:58;;;;;;;1.23;1.03;;;3.70;99.90;;;;;;2053141;28;20268;-75
2024/03/11 00:56:58;;;;;;;1.20;0.90;;;3.70;99.90;;;;;;2065550;28;20237;-75
2024/03/11 00:57:59;;;;;;;1.43;1.00;;;3.70;99.90;;;;;;2066583;28;20406;-75
2024/03/11 00:59:00;;;;;;;2.80;1.00;;;3.70;99.90;;;;;;2072778;28;20240;-75
2024/03/11 01:00:08;;;;;;;1.37;1.00;;;3.60;99.90;;;;;;2060967;28;20642;-75
2024/03/11 01:01:13;;;;;;;1.00;0.90;;;3.70;99.90;;;;;;2059783;28;20237;-75
2024/03/11 01:02:14;;;;;;;1.13;0.93;;;3.60;99.90;;;;;;2062534;28;20236;-75
2024/03/11 01:03:15;;;;;;;1.40;1.00;;;3.50;99.90;;;;;;2064557;28;20245;-75
2024/03/11 01:04:18;;;;;;;1.27;1.10;;;3.50;99.90;;;;;;2073130;28;20697;-75
2024/03/11 01:05:19;;;;;;;1.13;1.02;;;3.50;99.90;;;;;;2072373;28;21081;-75
2024/03/11 01:06:20;;;;;;;1.23;1.00;;;3.50;99.90;;;;;;2065617;28;20240;-75
2024/03/11 01:07:21;;;;;;;1.98;1.00;;;3.50;99.90;;;;;;2072674;28;20271;-75
2024/03/11 01:08:21;;;;;;;1.20;1.07;;;3.40;99.90;;;;;;2072469;28;20227;-75
2024/03/11 01:09:22;;;;;;;1.77;1.00;;;3.40;99.90;;;;;;2064737;28;20240;-75
2024/03/11 01:10:23;;;;;;;1.87;0.90;;;3.40;99.90;;;;;;2065693;28;20232;-75
2024/03/11 01:11:24;;;;;;;2.53;1.30;;;3.40;99.90;;;;;;2065887;28;20271;-75
2024/03/11 01:12:25;;;;;;;0.93;0.93;;;3.30;99.90;;;;;;2072951;28;20647;-75
2024/03/11 01:13:26;;;;;;;2.63;1.00;;;3.30;99.90;;;;;;2072677;28;20822;-76
2024/03/11 01:14:26;;;;;;;3.13;1.07;;;3.30;99.90;;;;;;2065558;28;20255;-75
2024/03/11 01:15:28;;;;;;;1.00;0.90;;;3.30;99.90;;;;;;2061834;28;20231;-75
2024/03/11 01:16:29;;;;;;;1.10;0.93;;;3.30;99.90;;;;;;2076389;28;20248;-75
2024/03/11 01:17:30;;;;;;;1.35;0.98;;;3.30;99.90;;;;;;2064564;28;20564;-75
2024/03/11 01:18:30;;;;;;;1.53;0.90;;;3.40;99.90;;;;;;2056454;28;20301;-75
2024/03/11 01:19:31;;;;;;;0.80;0.80;;;3.30;99.90;;;;;;2066273;28;20786;-76
2024/03/11 01:20:32;;;;;;;1.17;0.90;;;3.40;99.90;;;;;;2073513;28;20316;-75
2024/03/11 01:21:36;;;;;;;2.10;1.00;;;3.40;99.90;;;;;;2073303;28;20243;-75
2024/03/11 01:22:37;;;;;;;1.10;1.00;;;3.40;99.90;;;;;;2058163;28;20262;-75
2024/03/11 01:23:39;;;;;;;0.70;0.70;;;3.40;99.90;;;;;;2065590;28;20253;-75
2024/03/11 01:24:40;;;;;;;1.00;0.90;;;3.40;99.90;;;;;;2059686;28;20241;-75
2024/03/11 01:25:40;;;;;;;0.87;0.80;;;3.40;99.90;;;;;;2062462;28;20190;-74
2024/03/11 01:26:45;;;;;;;1.10;0.90;;;3.40;99.90;;;;;;2073107;28;20185;-74
2024/03/11 01:27:46;;;;;;;1.15;1.05;;;3.50;99.90;;;;;;2071691;28;20246;-74
2024/03/11 01:28:49;;;;;;;0.93;0.83;;;3.50;99.90;;;;;;2062601;28;20196;-75
2024/03/11 01:29:50;;;;;;;2.22;1.00;;;3.40;99.90;;;;;;2058412;28;20197;-75
2024/03/11 01:30:51;;;;;;;0.70;0.70;;;3.50;99.90;;;;;;2052545;28;20190;-75
2024/03/11 01:31:52;;;;;;;0.80;0.80;;;3.50;99.90;;;;;;2062608;28;20616;-75
2024/03/11 01:32:53;;;;;;;1.30;1.00;;;3.40;99.90;;;;;;2071580;28;20266;-74
2024/03/11 01:33:54;;;;;;;1.40;1.00;;;3.40;99.90;;;;;;2062163;28;20679;-75
2024/03/11 01:34:55;;;;;;;0.77;0.77;;;3.50;99.90;;;;;;2057723;28;20204;-74
2024/03/11 01:35:56;;;;;;;1.98;0.82;;;3.50;99.90;;;;;;2057436;28;20229;-74
2024/03/11 01:36:57;;;;;;;2.80;1.00;;;3.60;99.90;;;;;;2061150;28;20590;-74
2024/03/11 01:37:58;;;;;;;0.80;0.80;;;3.50;99.90;;;;;;2073186;28;20191;-74
2024/03/11 01:38:59;;;;;;;0.90;0.90;;;3.50;99.90;;;;;;2069020;28;20248;-74
2024/03/11 01:39:59;;;;;;;1.13;0.90;;;3.50;99.90;;;;;;2064388;28;20260;-75
2024/03/11 01:41:01;;;;;;;1.00;0.90;;;3.50;99.90;;;;;;2065847;28;20265;-74
2024/03/11 01:42:01;;;;;;;1.15;0.98;;;3.60;99.90;;;;;;2066918;28;20598;-74
2024/03/11 01:43:03;;;;;;;1.93;1.00;;;3.60;99.90;;;;;;2067103;28;20275;-74
2024/03/11 01:44:07;;;;;;;1.48;0.90;;;3.60;99.90;;;;;;2073530;28;20236;-74
2024/03/11 01:45:09;;;;;;;1.10;1.00;;;3.60;99.90;;;;;;2071099;28;20311;-74
2024/03/11 01:46:10;;;;;;;1.48;0.90;;;3.60;99.90;;;;;;2064492;28;20747;-74
2024/03/11 01:47:14;;;;;;;1.23;0.70;;;3.70;99.90;;;;;;2070507;28;20232;-74
2024/03/11 01:48:15;;;;;;;1.70;0.98;;;3.50;99.90;;;;;;2073471;28;20227;-74
2024/03/11 01:49:16;;;;;;;1.10;0.90;;;3.50;99.90;;;;;;2072165;28;20720;-74
2024/03/11 01:50:17;;;;;;;0.88;0.82;;;3.50;99.90;;;;;;2062850;28;20240;-74
2024/03/11 01:51:18;;;;;;;0.90;0.80;;;3.50;99.90;;;;;;2063894;28;20280;-74
2024/03/11 01:52:24;;;;;;;0.90;0.90;;;3.50;99.90;;;;;;2064061;28;20233;-74
2024/03/11 01:53:28;;;;;;;1.98;0.98;;;3.50;99.90;;;;;;2074750;28;20232;-74
2024/03/11 01:54:30;;;;;;;1.40;0.90;;;3.50;99.90;;;;;;2070469;28;20231;-75
2024/03/11 01:55:32;;;;;;;2.85;0.90;;;3.40;99.90;;;;;;2066105;28;20662;-74
2024/03/11 01:56:33;;;;;;;1.70;0.90;;;3.50;99.90;;;;;;2056597;28;20295;-74
2024/03/11 01:57:34;;;;;;;1.57;1.03;;;3.50;99.90;;;;;;2075682;28;20232;-74
2024/03/11 01:58:40;;;;;;;0.98;0.88;;;3.40;99.90;;;;;;2074836;28;20232;-74
2024/03/11 01:59:42;;;;;;;1.25;1.15;;;3.40;99.90;;;;;;2057712;28;20293;-74
2024/03/11 02:00:42;;;;;;;1.10;1.00;;;3.30;99.90;;;;;;2055950;28;20202;-74
2024/03/11 02:01:44;;;;;;;0.80;0.80;;;3.30;99.90;;;;;;2066205;28;20211;-74
2024/03/11 02:02:46;;;;;;;2.15;1.10;;;3.30;99.90;;;;;;2072335;28;20231;-74
2024/03/11 02:03:47;;;;;;;1.27;1.17;;;3.30;99.90;;;;;;2066228;28;20260;-75
2024/03/11 02:04:48;;;;;;;1.43;0.93;;;3.20;99.90;;;;;;2067525;28;20216;-74
2024/03/11 02:05:48;;;;;;;1.50;0.80;;;3.30;99.90;;;;;;2071700;28;20762;-75
2024/03/11 02:06:51;;;;;;;0.80;0.80;;;3.30;99.90;;;;;;2062751;28;20247;-75
2024/03/11 02:08:01;;;;;;;2.38;0.80;;;3.30;99.90;;;;;;2071516;28;20760;-74
2024/03/11 02:09:03;;;;;;;1.90;1.00;;;3.30;99.90;;;;;;2065095;28;20605;-76
2024/03/11 02:10:13;;;;;;;0.98;0.80;;;3.20;99.90;;;;;;2065361;28;20679;-75
2024/03/11 02:11:13;;;;;;;1.65;1.10;;;3.30;99.90;;;;;;2073947;28;20707;-75
2024/03/11 02:12:17;;;;;;;4.27;1.00;;;3.20;99.90;;;;;;2076902;28;20269;-75
2024/03/11 02:13:20;;;;;;;2.55;0.80;;;3.20;99.90;;;;;;2056556;28;20744;-74
2024/03/11 02:14:21;;;;;;;2.97;0.90;;;3.20;99.90;;;;;;2055803;28;20773;-74
2024/03/11 02:15:21;;;;;;;2.93;1.20;;;3.20;99.90;;;;;;2063444;28;20229;-74
2024/03/11 02:16:22;;;;;;;1.10;0.87;;;3.20;99.90;;;;;;2068616;28;20251;-74
2024/03/11 02:17:23;;;;;;;1.13;0.80;;;3.20;99.90;;;;;;2065283;28;20244;-75
2024/03/11 02:18:24;;;;;;;1.00;0.77;;;3.20;99.90;;;;;;2052256;28;20238;-75
2024/03/11 02:19:26;;;;;;;1.27;0.75;;;3.20;99.90;;;;;;2066069;28;20231;-75
2024/03/11 02:20:28;;;;;;;2.10;1.10;;;3.10;99.90;;;;;;2069895;28;20228;-74
2024/03/11 02:21:29;;;;;;;1.23;0.80;;;3.10;99.90;;;;;;2072405;28;20239;-74
2024/03/11 02:22:32;;;;;;;0.63;0.63;;;3.10;99.90;;;;;;2065115;28;20267;-75
2024/03/11 02:23:33;;;;;;;0.70;0.70;;;3.10;99.90;;;;;;2057183;28;20247;-76
2024/03/11 02:24:35;;;;;;;0.83;0.80;;;3.10;99.90;;;;;;2065759;28;20242;-74
2024/03/11 02:25:35;;;;;;;0.90;0.77;;;3.10;99.90;;;;;;2072897;28;20232;-74
2024/03/11 02:26:36;;;;;;;0.90;0.87;;;3.00;99.90;;;;;;2062191;28;20327;-74
2024/03/11 02:27:39;;;;;;;1.37;1.10;;;3.00;99.90;;;;;;2062803;28;20781;-74
2024/03/11 02:28:39;;;;;;;1.92;0.98;;;3.10;99.90;;;;;;2070452;28;20235;-74
2024/03/11 02:29:41;;;;;;;1.10;1.00;;;3.10;99.90;;;;;;2072066;28;20204;-74
2024/03/11 02:30:42;;;;;;;1.95;1.10;;;3.00;99.90;;;;;;2072544;28;20710;-74
2024/03/11 02:31:47;;;;;;;1.20;1.00;;;3.10;99.90;;;;;;2075125;28;20199;-75
2024/03/11 02:32:48;;;;;;;1.10;0.85;;;3.00;99.90;;;;;;2064774;28;20276;-75
2024/03/11 02:33:49;;;;;;;1.40;0.93;;;3.00;99.90;;;;;;2064243;28;20187;-75
2024/03/11 02:34:50;;;;;;;0.80;0.80;;;3.00;99.90;;;;;;2063702;28;20196;-75
2024/03/11 02:35:50;;;;;;;0.80;0.80;;;3.00;99.90;;;;;;2071543;28;20611;-75
2024/03/11 02:36:51;;;;;;;1.50;0.97;;;2.90;99.90;;;;;;2073000;28;20430;-75
2024/03/11 02:37:52;;;;;;;0.90;0.80;;;3.00;99.90;;;;;;2065034;28;20256;-75
2024/03/11 02:38:53;;;;;;;0.60;0.60;;;3.00;99.90;;;;;;2060830;28;20186;-74
2024/03/11 02:39:55;;;;;;;1.20;1.00;;;3.00;99.90;;;;;;2061477;28;20201;-74
2024/03/11 02:40:56;;;;;;;1.00;0.90;;;3.00;99.90;;;;;;2056810;28;20225;-74
2024/03/11 02:41:57;;;;;;;1.10;0.80;;;3.00;99.90;;;;;;2057584;28;20190;-74
2024/03/11 02:42:58;;;;;;;1.40;1.30;;;3.00;99.90;;;;;;2065305;28;20200;-76
2024/03/11 02:43:59;;;;;;;1.00;0.90;;;3.00;99.90;;;;;;2057384;28;20240;-75
2024/03/11 02:45:00;;;;;;;2.63;1.10;;;3.10;99.90;;;;;;2067765;28;20236;-76
2024/03/11 02:46:02;;;;;;;1.25;1.10;;;3.00;99.90;;;;;;2063745;28;20259;-74
2024/03/11 02:47:03;;;;;;;0.93;0.80;;;2.90;99.90;;;;;;2072317;28;20264;-75
2024/03/11 02:48:04;;;;;;;0.97;0.93;;;2.90;99.90;;;;;;2071595;28;20232;-74
2024/03/11 02:49:05;;;;;;;1.70;0.83;;;2.90;99.90;;;;;;2057493;28;20255;-74
2024/03/11 02:50:07;;;;;;;0.83;0.80;;;3.00;99.90;;;;;;2058060;28;20713;-74
2024/03/11 02:51:08;;;;;;;1.13;0.80;;;2.90;99.90;;;;;;2058442;28;20230;-74
2024/03/11 02:52:09;;;;;;;1.00;0.80;;;2.90;99.90;;;;;;2066155;28;20982;-75
2024/03/11 02:53:10;;;;;;;1.50;1.00;;;2.90;99.90;;;;;;2070747;28;20306;-74
2024/03/11 02:54:10;;;;;;;0.97;0.80;;;2.90;99.90;;;;;;2067111;28;20661;-74
2024/03/11 02:55:14;;;;;;;0.77;0.77;;;2.90;99.90;;;;;;2058074;28;20253;-74
2024/03/11 02:56:15;;;;;;;1.20;0.95;;;2.90;99.90;;;;;;2065794;28;20295;-74
2024/03/11 02:57:17;;;;;;;2.03;0.80;;;2.90;99.90;;;;;;2071734;28;20377;-74
2024/03/11 02:58:18;;;;;;;1.98;0.75;;;2.90;99.90;;;;;;2068971;28;20229;-74
2024/03/11 02:59:19;;;;;;;1.00;0.90;;;2.90;99.90;;;;;;2073327;28;20243;-74
2024/03/11 03:00:20;;;;;;;3.40;0.80;;;2.90;99.90;;;;;;2065981;28;20243;-75
2024/03/11 03:01:20;;;;;;;0.70;0.70;;;2.90;99.90;;;;;;2063033;28;20686;-74
2024/03/11 03:02:23;;;;;;;0.80;0.73;;;2.90;99.90;;;;;;2071502;28;20242;-74
2024/03/11 03:03:23;;;;;;;0.80;0.70;;;2.90;99.90;;;;;;2068378;28;20246;-74
2024/03/11 03:04:24;;;;;;;1.00;0.90;;;2.90;99.90;;;;;;2058788;28;20228;-75
2024/03/11 03:05:25;;;;;;;2.37;0.80;;;2.90;99.90;;;;;;2052384;28;20299;-74
2024/03/11 03:06:27;;;;;;;0.97;0.90;;;2.80;99.90;;;;;;2060925;28;20288;-74
2024/03/11 03:07:28;;;;;;;1.15;0.73;;;2.80;99.90;;;;;;2066307;28;20234;-74
2024/03/11 03:08:28;;;;;;;1.57;0.93;;;2.80;99.90;;;;;;2072265;28;20596;-74
2024/03/11 03:09:29;;;;;;;2.00;1.00;;;2.90;99.90;;;;;;2070886;28;20298;-74
2024/03/11 03:10:30;;;;;;;1.40;0.80;;;2.90;99.90;;;;;;2073715;28;20242;-74
2024/03/11 03:11:30;;;;;;;0.93;0.90;;;2.90;99.90;;;;;;2076354;28;20229;-75
2024/03/11 03:12:31;;;;;;;1.27;1.10;;;2.90;99.90;;;;;;2073840;28;20236;-74
2024/03/11 03:13:32;;;;;;;1.30;1.13;;;2.90;99.90;;;;;;2073424;28;20314;-75
2024/03/11 03:14:32;;;;;;;1.03;0.87;;;2.80;99.90;;;;;;2070091;28;20693;-75
2024/03/11 03:15:33;;;;;;;1.47;1.00;;;2.80;99.90;;;;;;2072690;28;20242;-74
2024/03/11 03:16:34;;;;;;;1.50;0.97;;;2.80;99.90;;;;;;2065580;28;20253;-74
2024/03/11 03:17:34;;;;;;;1.20;0.90;;;2.90;99.90;;;;;;2056097;28;20265;-74
2024/03/11 03:18:35;;;;;;;1.30;1.10;;;2.90;99.90;;;;;;2053704;28;20272;-74
2024/03/11 03:19:36;;;;;;;1.50;0.97;;;2.90;99.90;;;;;;2057582;28;20328;-75
2024/03/11 03:20:38;;;;;;;1.17;1.00;;;2.80;99.90;;;;;;2065887;28;20233;-74
2024/03/11 03:21:38;;;;;;;0.88;0.80;;;2.80;99.90;;;;;;2053280;28;20654;-75
2024/03/11 03:22:39;;;;;;;0.77;0.77;;;2.90;99.90;;;;;;2035315;29;20294;-74
2024/03/11 03:23:40;;;;;;;0.83;0.70;;;2.90;99.90;;;;;;2056387;28;20693;-74
2024/03/11 03:24:40;;;;;;;1.93;1.00;;;2.90;99.90;;;;;;2074902;28;20237;-75
2024/03/11 03:25:41;;;;;;;0.80;0.80;;;2.80;99.90;;;;;;2072226;28;20224;-75
2024/03/11 03:26:42;;;;;;;1.13;1.00;;;2.80;99.90;;;;;;2064831;28;20237;-75
2024/03/11 03:27:43;;;;;;;0.87;0.70;;;2.90;99.90;;;;;;2063179;28;20233;-74
2024/03/11 03:28:43;;;;;;;1.47;0.97;;;2.90;99.90;;;;;;2064501;28;20583;-75
2024/03/11 03:29:45;;;;;;;1.50;1.10;;;2.90;99.90;;;;;;2062795;28;20291;-75
2024/03/11 03:30:48;;;;;;;1.00;0.90;;;2.80;99.90;;;;;;2063302;28;20195;-75
2024/03/11 03:31:49;;;;;;;1.00;1.00;;;2.90;99.90;;;;;;2064736;28;20195;-74
2024/03/11 03:32:49;;;;;;;2.73;1.07;;;2.90;99.90;;;;;;2064936;28;20271;-73
2024/03/11 03:33:50;;;;;;;2.40;1.00;;;2.90;99.90;;;;;;2067821;28;20191;-74
2024/03/11 03:34:51;;;;;;;1.10;1.00;;;2.80;99.90;;;;;;2057561;28;20197;-75
2024/03/11 03:35:52;;;;;;;2.00;0.90;;;2.80;99.90;;;;;;2050262;28;20866;-75
2024/03/11 03:36:53;;;;;;;1.43;0.97;;;2.70;99.90;;;;;;2065119;28;20275;-75
2024/03/11 03:37:55;;;;;;;1.30;0.90;;;2.80;99.90;;;;;;2061912;28;20196;-74
2024/03/11 03:38:56;;;;;;;0.90;0.90;;;2.90;99.90;;;;;;2059197;28;20221;-75
2024/03/11 03:39:56;;;;;;;1.07;0.97;;;2.90;99.90;;;;;;2057579;28;20191;-74
2024/03/11 03:40:57;;;;;;;1.37;0.90;;;2.90;99.90;;;;;;2063489;28;20205;-74
2024/03/11 03:53:34;;;;;;;1.20;1.10;;;2.80;99.90;;;;;;2094960;27;20591;-74
2024/03/11 03:54:36;;;;;;;1.00;0.90;;;3.10;99.90;;;;;;2081374;28;20239;-75
2024/03/11 03:55:39;;;;;;;1.15;1.05;;;3.10;99.90;;;;;;2079231;28;20678;-75
2024/03/11 03:56:40;;;;;;;1.15;0.88;;;2.90;99.90;;;;;;2077095;28;20602;-75
2024/03/11 03:57:42;;;;;;;2.35;1.15;;;2.90;99.90;;;;;;2062609;28;20242;-75
2024/03/11 03:58:44;;;;;;;1.95;1.00;;;3.00;99.90;;;;;;2083465;28;20217;-75
2024/03/11 03:59:44;;;;;;;1.02;0.93;;;2.90;99.90;;;;;;2079498;28;20214;-74
2024/03/11 04:00:45;;;;;;;0.80;0.80;;;2.90;99.90;;;;;;2070282;28;20559;-75
2024/03/11 04:01:46;;;;;;;2.20;1.00;;;2.80;99.90;;;;;;2072995;28;20191;-75
2024/03/11 04:02:49;;;;;;;1.40;1.17;;;2.80;99.90;;;;;;2073793;28;20226;-75
2024/03/11 04:03:49;;;;;;;1.15;1.05;;;2.80;99.90;;;;;;2072185;28;20199;-75
2024/03/11 04:04:50;;;;;;;1.00;0.93;;;2.80;99.90;;;;;;2072735;28;20183;-75
2024/03/11 04:05:52;;;;;;;1.10;1.00;;;2.80;99.90;;;;;;2085811;28;20183;-75
2024/03/11 04:06:53;;;;;;;1.27;1.20;;;2.70;99.90;;;;;;2062900;28;20189;-75
2024/03/11 04:07:55;;;;;;;1.23;1.10;;;2.70;99.90;;;;;;2081071;28;20199;-75
2024/03/11 04:08:56;;;;;;;2.80;1.30;;;2.60;99.90;;;;;;2088706;28;20183;-75
2024/03/11 04:09:56;;;;;;;1.97;1.00;;;2.70;99.90;;;;;;2075032;28;20271;-75
2024/03/11 04:10:58;;;;;;;1.50;1.07;;;2.60;99.90;;;;;;2067370;28;20245;-75
2024/03/11 04:11:58;;;;;;;1.13;1.02;;;2.60;99.90;;;;;;2069396;28;20284;-75
2024/03/11 04:12:59;;;;;;;1.50;1.30;;;2.50;99.90;;;;;;2079597;28;20790;-75
2024/03/11 04:14:00;;;;;;;1.20;1.10;;;2.50;99.90;;;;;;2072150;28;20268;-75
2024/03/11 04:15:02;;;;;;;1.23;1.02;;;2.50;99.90;;;;;;2066530;28;20216;-75
2024/03/11 04:16:04;;;;;;;1.38;1.15;;;2.40;99.90;;;;;;2074953;28;20284;-75
2024/03/11 04:17:08;;;;;;;1.40;1.13;;;2.50;99.90;;;;;;2073782;28;20232;-75
2024/03/11 04:18:13;;;;;;;1.45;1.17;;;2.50;99.90;;;;;;2074598;28;20232;-75
2024/03/11 04:19:14;;;;;;;1.48;1.27;;;2.40;99.90;;;;;;2073406;28;20236;-75
2024/03/11 04:20:15;;;;;;;1.33;1.23;;;2.50;99.90;;;;;;2079235;28;20238;-75
2024/03/11 04:21:16;;;;;;;1.30;1.10;;;2.40;99.90;;;;;;2071827;28;20697;-74
2024/03/11 04:22:19;;;;;;;1.83;1.67;;;2.40;99.90;;;;;;2072596;28;20217;-75
2024/03/11 04:23:19;;;;;;;2.47;1.48;;;2.40;99.90;;;;;;2077243;28;20230;-75
2024/03/11 04:24:23;;;;;;;1.60;1.20;;;2.20;99.90;;;;;;2077430;28;20230;-75
2024/03/11 04:25:26;;;;;;;1.23;1.10;;;2.20;99.90;;;;;;2082909;28;20222;-75
2024/03/11 04:26:29;;;;;;;1.27;1.17;;;2.10;99.90;;;;;;2072468;28;20228;-75
2024/03/11 04:27:30;;;;;;;1.85;1.20;;;2.20;99.90;;;;;;2077217;28;20229;-75
2024/03/11 04:28:30;;;;;;;1.83;1.20;;;2.20;99.90;;;;;;2080574;28;20301;-75
2024/03/11 04:29:31;;;;;;;1.10;1.00;;;2.20;99.90;;;;;;2069717;28;20248;-76
2024/03/11 04:30:41;;;;;;;1.40;1.00;;;2.30;99.90;;;;;;2070406;28;20396;-73
2024/03/11 04:31:43;;;;;;;1.02;0.93;;;2.30;99.90;;;;;;2050468;28;20220;-75
2024/03/11 04:32:51;;;;;;;1.20;1.10;;;2.20;99.90;;;;;;2071333;28;20713;-76
2024/03/11 04:33:52;;;;;;;2.92;1.10;;;2.30;99.90;;;;;;2060644;28;20644;-74
2024/03/11 04:34:53;;;;;;;2.03;0.90;;;2.30;99.90;;;;;;2059149;28;20192;-75
2024/03/11 04:35:53;;;;;;;1.50;1.20;;;2.30;99.90;;;;;;2082503;28;20188;-75
2024/03/11 04:36:54;;;;;;;1.20;1.10;;;2.30;99.90;;;;;;2078545;28;20190;-75
2024/03/11 04:37:59;;;;;;;3.60;1.50;;;2.30;99.90;;;;;;2061631;28;20282;-75
2024/03/11 04:39:04;;;;;;;1.67;1.20;;;2.20;99.90;;;;;;2060764;28;20301;-75
2024/03/11 04:40:07;;;;;;;3.80;1.50;;;2.20;99.90;;;;;;2064898;28;20290;-75
2024/03/11 04:41:08;;;;;;;2.45;2.25;;;2.20;99.90;;;;;;2060282;28;20226;-75
2024/03/11 04:42:10;;;;;;;4.47;2.73;;;2.20;99.90;;;;;;2064882;28;20224;-75
2024/03/11 04:43:11;;;;;;;3.33;2.50;;;2.20;99.90;;;;;;2072252;28;20224;-75
2024/03/11 04:44:12;;;;;;;2.93;1.63;;;2.10;99.90;;;;;;2070517;28;20243;-75
2024/03/11 04:45:14;;;;;;;1.43;1.33;;;2.00;99.90;;;;;;2063411;28;20254;-75
2024/03/11 04:46:15;;;;;;;2.83;1.63;;;1.90;99.90;;;;;;2070576;28;20241;-75
2024/03/11 04:47:16;;;;;;;1.85;1.20;;;1.90;99.90;;;;;;2076530;28;20253;-75
2024/03/11 04:48:19;;;;;;;1.60;1.23;;;1.90;99.90;;;;;;2067458;28;20221;-75
2024/03/11 04:49:19;;;;;;;2.20;1.13;;;1.90;99.90;;;;;;2067930;28;20229;-75
2024/03/11 04:50:24;;;;;;;1.97;1.30;;;2.00;99.90;;;;;;2062368;28;20223;-75
2024/03/11 04:51:25;;;;;;;2.78;1.45;;;2.00;99.90;;;;;;2059574;28;20231;-75
2024/03/11 04:52:26;;;;;;;1.40;1.10;;;1.90;99.90;;;;;;2069946;28;20636;-75
2024/03/11 04:53:27;;;;;;;1.58;1.20;;;1.90;99.90;;;;;;2075023;28;20286;-75
2024/03/11 04:54:28;;;;;;;1.20;1.07;;;1.90;99.90;;;;;;2073864;28;20717;-75
2024/03/11 04:55:30;;;;;;;1.83;1.40;;;1.90;99.90;;;;;;2067863;28;20223;-75
2024/03/11 04:56:31;;;;;;;1.52;1.40;;;1.80;99.90;;;;;;2056193;28;20232;-75
2024/03/11 04:57:34;;;;;;;2.50;1.80;;;1.90;99.90;;;;;;2046936;28;20306;-75
2024/03/11 04:58:36;;;;;;;6.93;4.50;;;1.90;99.90;;;;;;2052224;28;20480;-75
2024/03/11 04:59:38;;;;;;;6.90;4.50;;;1.80;99.90;;;;;;2056507;28;20296;-75
2024/03/11 05:00:40;;;;;;;4.47;3.15;;;1.70;99.90;;;;;;2065480;28;20230;-74
2024/03/11 05:01:41;;;;;;;5.45;3.63;;;1.70;99.90;;;;;;2064640;28;20190;-75
2024/03/11 05:02:42;;;;;;;6.43;3.30;;;1.60;99.90;;;;;;2058181;28;20207;-75
2024/03/11 05:03:42;;;;;;;6.03;3.93;;;1.60;99.90;;;;;;2057965;28;20623;-75
2024/03/11 05:04:43;;;;;;;4.50;2.97;;;1.60;99.90;;;;;;2067454;28;20211;-75
2024/03/11 05:05:44;;;;;;;5.33;3.70;;;1.50;99.90;;;;;;2067544;28;20271;-74
2024/03/11 05:06:44;;;;;;;5.77;3.20;;;1.60;99.90;;;;;;2063208;28;20175;-74
2024/03/11 05:07:45;;;;;;;4.27;3.23;;;1.70;99.90;;;;;;2067216;28;20632;-75
2024/03/11 05:08:46;;;;;;;3.57;2.70;;;1.70;99.90;;;;;;2065526;28;20286;-75
2024/03/11 05:09:47;;;;;;;3.73;2.70;;;1.80;99.90;;;;;;2056842;28;20437;-76
2024/03/11 05:10:47;;;;;;;4.80;3.30;;;1.80;99.90;;;;;;2050083;28;20271;-74
2024/03/11 05:11:48;;;;;;;3.70;3.07;;;1.70;99.90;;;;;;2060909;28;20263;-74
2024/03/11 05:12:49;;;;;;;3.73;2.60;;;1.80;99.90;;;;;;2073548;28;20186;-75
2024/03/11 05:13:50;;;;;;;3.97;2.97;;;1.80;99.90;;;;;;2064793;28;20196;-75
2024/03/11 05:14:51;;;;;;;4.47;3.10;;;1.80;99.90;;;;;;2059328;28;20193;-75
2024/03/11 05:15:52;;;;;;;3.83;3.00;;;1.80;99.90;;;;;;2063770;28;20299;-74
2024/03/11 05:16:56;;;;;;;4.50;3.10;;;1.80;99.90;;;;;;2057187;28;20278;-75
2024/03/11 05:17:57;;;;;;;6.82;3.42;;;1.90;99.90;;;;;;2057008;28;20742;-75
2024/03/11 05:18:58;;;;;;;4.53;3.17;;;1.90;99.90;;;;;;2049864;28;20198;-75
2024/03/11 05:19:59;;;;;;;4.80;3.42;;;2.00;99.90;;;;;;2043564;28;22227;-75
2024/03/11 05:21:00;;;;;;;3.42;2.55;;;2.00;99.90;;;;;;2050335;28;20237;-75
2024/03/11 05:22:01;;;;;;;6.07;3.40;;;2.00;99.90;;;;;;2050897;28;20233;-75
2024/03/11 05:23:01;;;;;;;3.30;2.40;;;2.00;99.90;;;;;;2057815;28;20226;-75
2024/03/11 05:24:02;;;;;;;4.63;3.53;;;1.90;99.90;;;;;;2052404;28;20280;-75
2024/03/11 05:25:06;;;;;;;5.75;3.00;;;1.90;99.90;;;;;;2060214;28;20325;-75
2024/03/11 05:26:06;;;;;;;6.80;3.47;;;1.80;99.90;;;;;;2062847;28;20312;-76
2024/03/11 05:27:08;;;;;;;5.50;3.50;;;1.80;99.90;;;;;;2062268;28;20233;-75
2024/03/11 05:28:08;;;;;;;6.72;3.60;;;1.80;99.90;;;;;;2065388;28;20215;-74
2024/03/11 05:29:12;;;;;;;6.23;4.20;;;1.70;99.90;;;;;;2059229;28;20351;-74
2024/03/11 05:30:14;;;;;;;4.35;2.78;;;1.70;99.90;;;;;;2066573;28;20664;-74
2024/03/11 05:31:16;;;;;;;26.45;15.68;;;1.70;99.90;;;;;;2071463;28;20236;-75
2024/03/11 05:32:17;;;;;;;34.90;22.80;;;1.70;99.90;;;;;;2075700;28;20222;-75
2024/03/11 05:33:20;;;;;;;26.95;19.38;;;1.80;99.90;;;;;;2062364;28;20226;-74
2024/03/11 05:34:21;;;;;;;15.15;12.35;;;1.80;99.90;;;;;;2072885;28;20232;-75
2024/03/11 05:35:22;;;;;;;7.50;5.30;;;1.80;99.90;;;;;;2065555;28;20221;-74
2024/03/11 05:36:22;;;;;;;6.83;5.47;;;1.90;99.90;;;;;;2056023;28;20222;-74